sensor_id;sensor_type;location;lat;lon;timestamp;P1;durP1;ratioP1;P2;durP2;ratioP2
31206;SDS011;17834;52.992;8.856;2023-04-03T00:01:18;4.65;;;1.80;;
31206;SDS011;17834;52.992;8.856;2023-04-03T00:03:44;5.45;;;1.92;;
31206;SDS011;17834;52.992;8.856;2023-04-03T00:06:11;3.42;;;1.60;;
31206;SDS011;17834;52.992;8.856;2023-04-03T00:08:37;4.82;;;2.20;;
31206;SDS011;17834;52.992;8.856;2023-04-03T00:11:03;5.38;;;1.98;;
31206;SDS011;17834;52.992;8.856;2023-04-03T00:13:30;5.80;;;1.77;;
31206;SDS011;17834;52.992;8.856;2023-04-03T00:15:56;3.03;;;1.52;;
31206;SDS011;17834;52.992;8.856;2023-04-03T00:18:22;3.70;;;1.50;;
31206;SDS011;17834;52.992;8.856;2023-04-03T00:20:49;3.45;;;1.80;;
31206;SDS011;17834;52.992;8.856;2023-04-03T00:23:15;7.38;;;2.25;;
31206;SDS011;17834;52.992;8.856;2023-04-03T00:25:41;3.10;;;1.55;;
31206;SDS011;17834;52.992;8.856;2023-04-03T00:28:07;6.15;;;2.58;;
31206;SDS011;17834;52.992;8.856;2023-04-03T00:30:33;5.72;;;2.00;;
31206;SDS011;17834;52.992;8.856;2023-04-03T00:33:00;4.05;;;1.85;;
31206;SDS011;17834;52.992;8.856;2023-04-03T00:35:26;3.28;;;1.85;;
31206;SDS011;17834;52.992;8.856;2023-04-03T00:37:52;6.22;;;1.85;;
31206;SDS011;17834;52.992;8.856;2023-04-03T00:40:19;2.70;;;1.77;;
31206;SDS011;17834;52.992;8.856;2023-04-03T00:42:45;8.05;;;2.05;;
31206;SDS011;17834;52.992;8.856;2023-04-03T00:47:41;4.75;;;1.60;;
31206;SDS011;17834;52.992;8.856;2023-04-03T00:50:07;5.38;;;1.80;;
31206;SDS011;17834;52.992;8.856;2023-04-03T00:52:33;12.02;;;2.50;;
31206;SDS011;17834;52.992;8.856;2023-04-03T00:55:01;2.47;;;1.60;;
31206;SDS011;17834;52.992;8.856;2023-04-03T00:57:28;2.17;;;1.52;;
31206;SDS011;17834;52.992;8.856;2023-04-03T00:59:55;7.32;;;2.70;;
31206;SDS011;17834;52.992;8.856;2023-04-03T01:02:23;6.07;;;2.00;;
31206;SDS011;17834;52.992;8.856;2023-04-03T01:04:49;3.78;;;2.13;;
31206;SDS011;17834;52.992;8.856;2023-04-03T01:07:17;5.05;;;1.75;;
31206;SDS011;17834;52.992;8.856;2023-04-03T01:09:44;4.93;;;2.65;;
31206;SDS011;17834;52.992;8.856;2023-04-03T01:14:41;4.13;;;2.10;;
31206;SDS011;17834;52.992;8.856;2023-04-03T01:19:55;9.25;;;3.35;;
31206;SDS011;17834;52.992;8.856;2023-04-03T01:22:25;5.60;;;2.03;;
31206;SDS011;17834;52.992;8.856;2023-04-03T01:24:56;5.82;;;2.05;;
31206;SDS011;17834;52.992;8.856;2023-04-03T01:27:23;6.13;;;2.45;;
31206;SDS011;17834;52.992;8.856;2023-04-03T01:29:48;5.10;;;2.53;;
31206;SDS011;17834;52.992;8.856;2023-04-03T01:32:14;4.80;;;2.00;;
31206;SDS011;17834;52.992;8.856;2023-04-03T01:34:41;5.80;;;1.95;;
31206;SDS011;17834;52.992;8.856;2023-04-03T01:37:07;4.38;;;2.22;;
31206;SDS011;17834;52.992;8.856;2023-04-03T01:39:33;3.22;;;2.40;;
31206;SDS011;17834;52.992;8.856;2023-04-03T01:41:59;6.47;;;1.85;;
31206;SDS011;17834;52.992;8.856;2023-04-03T01:44:25;5.40;;;1.95;;
31206;SDS011;17834;52.992;8.856;2023-04-03T01:46:51;4.95;;;2.25;;
31206;SDS011;17834;52.992;8.856;2023-04-03T01:49:17;3.53;;;2.13;;
31206;SDS011;17834;52.992;8.856;2023-04-03T01:51:43;2.95;;;2.05;;
31206;SDS011;17834;52.992;8.856;2023-04-03T01:54:09;12.45;;;2.28;;
31206;SDS011;17834;52.992;8.856;2023-04-03T01:56:35;10.95;;;2.47;;
31206;SDS011;17834;52.992;8.856;2023-04-03T01:59:02;5.85;;;2.28;;
31206;SDS011;17834;52.992;8.856;2023-04-03T02:01:28;4.40;;;2.35;;
31206;SDS011;17834;52.992;8.856;2023-04-03T02:03:54;6.95;;;2.33;;
31206;SDS011;17834;52.992;8.856;2023-04-03T02:06:20;4.68;;;2.28;;
31206;SDS011;17834;52.992;8.856;2023-04-03T02:08:46;5.97;;;2.50;;
31206;SDS011;17834;52.992;8.856;2023-04-03T02:11:12;6.70;;;2.22;;
31206;SDS011;17834;52.992;8.856;2023-04-03T02:13:38;7.30;;;2.65;;
31206;SDS011;17834;52.992;8.856;2023-04-03T02:16:08;4.20;;;2.03;;
31206;SDS011;17834;52.992;8.856;2023-04-03T02:18:34;4.53;;;2.45;;
31206;SDS011;17834;52.992;8.856;2023-04-03T02:21:00;5.43;;;2.08;;
31206;SDS011;17834;52.992;8.856;2023-04-03T02:23:26;3.50;;;1.95;;
31206;SDS011;17834;52.992;8.856;2023-04-03T02:25:52;5.15;;;3.10;;
31206;SDS011;17834;52.992;8.856;2023-04-03T02:28:18;5.63;;;2.47;;
31206;SDS011;17834;52.992;8.856;2023-04-03T02:30:44;6.05;;;2.08;;
31206;SDS011;17834;52.992;8.856;2023-04-03T02:33:11;5.68;;;2.55;;
31206;SDS011;17834;52.992;8.856;2023-04-03T02:35:38;5.55;;;2.30;;
31206;SDS011;17834;52.992;8.856;2023-04-03T02:38:04;6.80;;;2.33;;
31206;SDS011;17834;52.992;8.856;2023-04-03T02:40:30;8.55;;;2.75;;
31206;SDS011;17834;52.992;8.856;2023-04-03T02:42:57;5.45;;;2.20;;
31206;SDS011;17834;52.992;8.856;2023-04-03T02:45:23;5.03;;;2.45;;
31206;SDS011;17834;52.992;8.856;2023-04-03T02:47:49;4.20;;;2.10;;
31206;SDS011;17834;52.992;8.856;2023-04-03T02:50:15;6.57;;;2.35;;
31206;SDS011;17834;52.992;8.856;2023-04-03T02:52:41;8.52;;;2.50;;
31206;SDS011;17834;52.992;8.856;2023-04-03T02:55:07;9.02;;;2.30;;
31206;SDS011;17834;52.992;8.856;2023-04-03T02:57:33;4.97;;;2.33;;
31206;SDS011;17834;52.992;8.856;2023-04-03T03:00:00;6.25;;;2.45;;
31206;SDS011;17834;52.992;8.856;2023-04-03T03:02:26;5.20;;;2.60;;
31206;SDS011;17834;52.992;8.856;2023-04-03T03:04:52;8.45;;;2.53;;
31206;SDS011;17834;52.992;8.856;2023-04-03T03:07:18;5.10;;;2.25;;
31206;SDS011;17834;52.992;8.856;2023-04-03T03:09:44;5.72;;;2.35;;
31206;SDS011;17834;52.992;8.856;2023-04-03T03:12:10;5.32;;;2.40;;
31206;SDS011;17834;52.992;8.856;2023-04-03T03:14:36;12.10;;;2.60;;
31206;SDS011;17834;52.992;8.856;2023-04-03T03:17:03;6.47;;;2.40;;
31206;SDS011;17834;52.992;8.856;2023-04-03T03:19:28;10.15;;;2.50;;
31206;SDS011;17834;52.992;8.856;2023-04-03T03:21:55;2.92;;;1.90;;
31206;SDS011;17834;52.992;8.856;2023-04-03T03:24:21;5.13;;;2.38;;
31206;SDS011;17834;52.992;8.856;2023-04-03T03:26:47;7.82;;;2.10;;
31206;SDS011;17834;52.992;8.856;2023-04-03T03:29:13;10.63;;;2.20;;
31206;SDS011;17834;52.992;8.856;2023-04-03T03:31:40;4.85;;;2.13;;
31206;SDS011;17834;52.992;8.856;2023-04-03T03:34:06;8.70;;;2.05;;
31206;SDS011;17834;52.992;8.856;2023-04-03T03:36:32;4.40;;;2.40;;
31206;SDS011;17834;52.992;8.856;2023-04-03T03:38:58;4.07;;;2.40;;
31206;SDS011;17834;52.992;8.856;2023-04-03T03:41:24;5.47;;;2.53;;
31206;SDS011;17834;52.992;8.856;2023-04-03T03:43:50;6.15;;;2.75;;
31206;SDS011;17834;52.992;8.856;2023-04-03T03:46:16;3.92;;;2.00;;
31206;SDS011;17834;52.992;8.856;2023-04-03T03:48:42;8.45;;;2.53;;
31206;SDS011;17834;52.992;8.856;2023-04-03T03:51:08;6.00;;;2.50;;
31206;SDS011;17834;52.992;8.856;2023-04-03T03:53:34;7.95;;;2.42;;
31206;SDS011;17834;52.992;8.856;2023-04-03T03:56:01;5.88;;;2.33;;
31206;SDS011;17834;52.992;8.856;2023-04-03T03:58:27;3.85;;;2.15;;
31206;SDS011;17834;52.992;8.856;2023-04-03T04:00:53;4.57;;;2.08;;
31206;SDS011;17834;52.992;8.856;2023-04-03T04:03:19;7.63;;;2.17;;
31206;SDS011;17834;52.992;8.856;2023-04-03T04:05:45;6.32;;;3.03;;
31206;SDS011;17834;52.992;8.856;2023-04-03T04:08:12;8.57;;;3.33;;
31206;SDS011;17834;52.992;8.856;2023-04-03T04:10:38;10.07;;;3.85;;
31206;SDS011;17834;52.992;8.856;2023-04-03T04:13:04;9.05;;;5.45;;
31206;SDS011;17834;52.992;8.856;2023-04-03T04:15:30;9.07;;;4.57;;
31206;SDS011;17834;52.992;8.856;2023-04-03T04:17:56;10.85;;;5.90;;
31206;SDS011;17834;52.992;8.856;2023-04-03T04:20:22;9.35;;;4.20;;
31206;SDS011;17834;52.992;8.856;2023-04-03T04:22:48;4.50;;;3.00;;
31206;SDS011;17834;52.992;8.856;2023-04-03T04:25:14;6.95;;;3.13;;
31206;SDS011;17834;52.992;8.856;2023-04-03T04:27:40;9.93;;;2.92;;
31206;SDS011;17834;52.992;8.856;2023-04-03T04:30:06;6.13;;;3.03;;
31206;SDS011;17834;52.992;8.856;2023-04-03T04:32:33;7.65;;;2.95;;
31206;SDS011;17834;52.992;8.856;2023-04-03T04:34:59;4.93;;;2.92;;
31206;SDS011;17834;52.992;8.856;2023-04-03T04:37:25;7.85;;;2.65;;
31206;SDS011;17834;52.992;8.856;2023-04-03T04:39:52;7.72;;;2.85;;
31206;SDS011;17834;52.992;8.856;2023-04-03T04:42:18;3.70;;;2.38;;
31206;SDS011;17834;52.992;8.856;2023-04-03T04:44:44;3.88;;;2.53;;
31206;SDS011;17834;52.992;8.856;2023-04-03T04:47:10;3.35;;;2.22;;
31206;SDS011;17834;52.992;8.856;2023-04-03T04:49:36;6.95;;;2.47;;
31206;SDS011;17834;52.992;8.856;2023-04-03T04:52:02;7.03;;;2.85;;
31206;SDS011;17834;52.992;8.856;2023-04-03T04:54:28;4.65;;;2.40;;
31206;SDS011;17834;52.992;8.856;2023-04-03T04:56:54;4.78;;;2.97;;
31206;SDS011;17834;52.992;8.856;2023-04-03T04:59:20;6.45;;;2.90;;
31206;SDS011;17834;52.992;8.856;2023-04-03T05:01:46;5.53;;;2.40;;
31206;SDS011;17834;52.992;8.856;2023-04-03T05:04:12;3.67;;;2.38;;
31206;SDS011;17834;52.992;8.856;2023-04-03T05:06:39;7.97;;;2.67;;
31206;SDS011;17834;52.992;8.856;2023-04-03T05:09:05;6.85;;;2.33;;
31206;SDS011;17834;52.992;8.856;2023-04-03T05:11:31;10.80;;;2.63;;
31206;SDS011;17834;52.992;8.856;2023-04-03T05:13:57;7.07;;;2.45;;
31206;SDS011;17834;52.992;8.856;2023-04-03T05:16:23;3.70;;;2.05;;
31206;SDS011;17834;52.992;8.856;2023-04-03T05:18:50;5.63;;;2.20;;
31206;SDS011;17834;52.992;8.856;2023-04-03T05:21:16;3.22;;;1.90;;
31206;SDS011;17834;52.992;8.856;2023-04-03T05:23:43;8.07;;;2.15;;
31206;SDS011;17834;52.992;8.856;2023-04-03T05:26:09;4.07;;;2.60;;
31206;SDS011;17834;52.992;8.856;2023-04-03T05:28:35;5.22;;;2.30;;
31206;SDS011;17834;52.992;8.856;2023-04-03T05:31:01;4.85;;;2.47;;
31206;SDS011;17834;52.992;8.856;2023-04-03T05:33:27;6.22;;;2.20;;
31206;SDS011;17834;52.992;8.856;2023-04-03T05:35:54;3.83;;;2.83;;
31206;SDS011;17834;52.992;8.856;2023-04-03T05:38:20;7.72;;;2.45;;
31206;SDS011;17834;52.992;8.856;2023-04-03T05:40:46;5.15;;;2.30;;
31206;SDS011;17834;52.992;8.856;2023-04-03T05:43:12;8.30;;;2.47;;
31206;SDS011;17834;52.992;8.856;2023-04-03T05:45:38;9.65;;;2.58;;
31206;SDS011;17834;52.992;8.856;2023-04-03T05:48:04;3.45;;;2.30;;
31206;SDS011;17834;52.992;8.856;2023-04-03T05:50:30;4.43;;;2.35;;
31206;SDS011;17834;52.992;8.856;2023-04-03T05:52:57;6.80;;;2.20;;
31206;SDS011;17834;52.992;8.856;2023-04-03T05:55:23;4.95;;;2.40;;
31206;SDS011;17834;52.992;8.856;2023-04-03T05:57:50;10.23;;;2.20;;
31206;SDS011;17834;52.992;8.856;2023-04-03T06:00:17;8.07;;;2.40;;
31206;SDS011;17834;52.992;8.856;2023-04-03T06:02:43;6.57;;;2.33;;
31206;SDS011;17834;52.992;8.856;2023-04-03T06:05:09;7.03;;;2.42;;
31206;SDS011;17834;52.992;8.856;2023-04-03T06:07:37;4.97;;;2.50;;
31206;SDS011;17834;52.992;8.856;2023-04-03T06:10:03;5.97;;;3.00;;
31206;SDS011;17834;52.992;8.856;2023-04-03T06:12:30;13.85;;;3.10;;
31206;SDS011;17834;52.992;8.856;2023-04-03T06:14:56;8.95;;;2.40;;
31206;SDS011;17834;52.992;8.856;2023-04-03T06:17:22;9.13;;;3.05;;
31206;SDS011;17834;52.992;8.856;2023-04-03T06:19:48;15.75;;;2.60;;
31206;SDS011;17834;52.992;8.856;2023-04-03T06:22:14;6.78;;;2.17;;
31206;SDS011;17834;52.992;8.856;2023-04-03T06:24:40;3.53;;;1.77;;
31206;SDS011;17834;52.992;8.856;2023-04-03T06:27:06;6.65;;;1.83;;
31206;SDS011;17834;52.992;8.856;2023-04-03T06:29:33;6.65;;;1.95;;
31206;SDS011;17834;52.992;8.856;2023-04-03T06:31:59;9.10;;;1.70;;
31206;SDS011;17834;52.992;8.856;2023-04-03T06:34:25;7.57;;;2.13;;
31206;SDS011;17834;52.992;8.856;2023-04-03T06:36:51;4.97;;;1.80;;
31206;SDS011;17834;52.992;8.856;2023-04-03T06:39:18;3.53;;;1.60;;
31206;SDS011;17834;52.992;8.856;2023-04-03T06:41:48;2.38;;;1.27;;
31206;SDS011;17834;52.992;8.856;2023-04-03T06:44:14;5.70;;;2.13;;
31206;SDS011;17834;52.992;8.856;2023-04-03T06:46:41;6.07;;;1.85;;
31206;SDS011;17834;52.992;8.856;2023-04-03T06:49:08;5.93;;;1.58;;
31206;SDS011;17834;52.992;8.856;2023-04-03T06:51:34;2.75;;;1.40;;
31206;SDS011;17834;52.992;8.856;2023-04-03T06:54:00;6.13;;;1.65;;
31206;SDS011;17834;52.992;8.856;2023-04-03T06:56:27;4.28;;;1.48;;
31206;SDS011;17834;52.992;8.856;2023-04-03T06:58:53;4.13;;;1.50;;
31206;SDS011;17834;52.992;8.856;2023-04-03T07:01:19;8.00;;;1.70;;
31206;SDS011;17834;52.992;8.856;2023-04-03T07:03:46;4.32;;;1.38;;
31206;SDS011;17834;52.992;8.856;2023-04-03T07:06:13;3.83;;;1.55;;
31206;SDS011;17834;52.992;8.856;2023-04-03T07:08:39;4.10;;;1.40;;
31206;SDS011;17834;52.992;8.856;2023-04-03T07:11:06;6.70;;;1.70;;
31206;SDS011;17834;52.992;8.856;2023-04-03T07:13:32;8.68;;;1.73;;
31206;SDS011;17834;52.992;8.856;2023-04-03T07:15:58;2.30;;;1.40;;
31206;SDS011;17834;52.992;8.856;2023-04-03T07:18:25;6.32;;;1.38;;
31206;SDS011;17834;52.992;8.856;2023-04-03T07:20:51;6.20;;;1.38;;
31206;SDS011;17834;52.992;8.856;2023-04-03T07:23:17;3.38;;;1.35;;
31206;SDS011;17834;52.992;8.856;2023-04-03T07:25:44;8.65;;;2.10;;
31206;SDS011;17834;52.992;8.856;2023-04-03T07:28:10;4.10;;;1.58;;
31206;SDS011;17834;52.992;8.856;2023-04-03T07:30:47;2.85;;;1.45;;
31206;SDS011;17834;52.992;8.856;2023-04-03T07:33:15;5.28;;;1.40;;
31206;SDS011;17834;52.992;8.856;2023-04-03T07:35:41;3.55;;;1.67;;
31206;SDS011;17834;52.992;8.856;2023-04-03T07:38:07;8.50;;;1.50;;
31206;SDS011;17834;52.992;8.856;2023-04-03T07:40:34;7.07;;;1.63;;
31206;SDS011;17834;52.992;8.856;2023-04-03T07:43:00;3.80;;;1.30;;
31206;SDS011;17834;52.992;8.856;2023-04-03T07:45:27;3.38;;;1.42;;
31206;SDS011;17834;52.992;8.856;2023-04-03T07:47:53;2.08;;;1.27;;
31206;SDS011;17834;52.992;8.856;2023-04-03T07:50:19;5.45;;;1.50;;
31206;SDS011;17834;52.992;8.856;2023-04-03T07:52:45;2.33;;;1.13;;
31206;SDS011;17834;52.992;8.856;2023-04-03T07:55:11;5.10;;;1.50;;
31206;SDS011;17834;52.992;8.856;2023-04-03T07:57:37;5.75;;;1.50;;
31206;SDS011;17834;52.992;8.856;2023-04-03T08:00:04;6.10;;;1.40;;
31206;SDS011;17834;52.992;8.856;2023-04-03T08:02:30;4.15;;;1.40;;
31206;SDS011;17834;52.992;8.856;2023-04-03T08:04:59;3.22;;;1.20;;
31206;SDS011;17834;52.992;8.856;2023-04-03T08:07:25;5.35;;;0.98;;
31206;SDS011;17834;52.992;8.856;2023-04-03T08:09:52;9.18;;;1.30;;
31206;SDS011;17834;52.992;8.856;2023-04-03T08:12:18;5.55;;;1.20;;
31206;SDS011;17834;52.992;8.856;2023-04-03T08:14:44;3.90;;;1.17;;
31206;SDS011;17834;52.992;8.856;2023-04-03T08:17:10;5.90;;;1.25;;
31206;SDS011;17834;52.992;8.856;2023-04-03T08:19:37;2.33;;;1.00;;
31206;SDS011;17834;52.992;8.856;2023-04-03T08:22:03;4.60;;;1.52;;
31206;SDS011;17834;52.992;8.856;2023-04-03T08:24:30;4.50;;;1.20;;
31206;SDS011;17834;52.992;8.856;2023-04-03T08:26:56;2.72;;;1.20;;
31206;SDS011;17834;52.992;8.856;2023-04-03T08:29:22;3.80;;;1.00;;
31206;SDS011;17834;52.992;8.856;2023-04-03T08:31:48;3.47;;;1.10;;
31206;SDS011;17834;52.992;8.856;2023-04-03T08:34:15;2.50;;;0.85;;
31206;SDS011;17834;52.992;8.856;2023-04-03T08:36:41;3.70;;;1.10;;
31206;SDS011;17834;52.992;8.856;2023-04-03T08:39:07;4.68;;;1.10;;
31206;SDS011;17834;52.992;8.856;2023-04-03T08:41:37;2.17;;;1.00;;
31206;SDS011;17834;52.992;8.856;2023-04-03T08:46:47;2.10;;;1.00;;
31206;SDS011;17834;52.992;8.856;2023-04-03T08:50:01;1.25;;;0.80;;
31206;SDS011;17834;52.992;8.856;2023-04-03T08:54:30;2.95;;;1.10;;
31206;SDS011;17834;52.992;8.856;2023-04-03T08:56:56;2.15;;;0.95;;
31206;SDS011;17834;52.992;8.856;2023-04-03T08:59:25;5.82;;;1.17;;
31206;SDS011;17834;52.992;8.856;2023-04-03T09:01:51;4.00;;;1.08;;
31206;SDS011;17834;52.992;8.856;2023-04-03T09:04:17;8.25;;;1.23;;
31206;SDS011;17834;52.992;8.856;2023-04-03T09:06:44;2.80;;;0.90;;
31206;SDS011;17834;52.992;8.856;2023-04-03T09:09:15;6.53;;;1.23;;
31206;SDS011;17834;52.992;8.856;2023-04-03T09:11:47;3.00;;;0.95;;
31206;SDS011;17834;52.992;8.856;2023-04-03T09:14:33;7.43;;;0.93;;
31206;SDS011;17834;52.992;8.856;2023-04-03T09:19:36;1.17;;;0.80;;
31206;SDS011;17834;52.992;8.856;2023-04-03T09:22:17;2.47;;;0.98;;
31206;SDS011;17834;52.992;8.856;2023-04-03T09:24:49;2.55;;;0.80;;
31206;SDS011;17834;52.992;8.856;2023-04-03T09:27:16;2.88;;;0.93;;
31206;SDS011;17834;52.992;8.856;2023-04-03T09:29:43;4.47;;;0.80;;
31206;SDS011;17834;52.992;8.856;2023-04-03T09:35:20;0.80;;;0.70;;
31206;SDS011;17834;52.992;8.856;2023-04-03T09:37:49;3.20;;;0.63;;
31206;SDS011;17834;52.992;8.856;2023-04-03T09:42:52;3.03;;;1.10;;
31206;SDS011;17834;52.992;8.856;2023-04-03T09:45:22;5.38;;;0.98;;
31206;SDS011;17834;52.992;8.856;2023-04-03T09:47:48;3.28;;;1.10;;
31206;SDS011;17834;52.992;8.856;2023-04-03T09:50:21;2.70;;;0.98;;
31206;SDS011;17834;52.992;8.856;2023-04-03T09:52:49;4.80;;;1.15;;
31206;SDS011;17834;52.992;8.856;2023-04-03T09:57:43;1.17;;;0.90;;
31206;SDS011;17834;52.992;8.856;2023-04-03T10:00:19;3.28;;;1.00;;
31206;SDS011;17834;52.992;8.856;2023-04-03T10:02:46;1.70;;;0.80;;
31206;SDS011;17834;52.992;8.856;2023-04-03T10:08:07;7.93;;;1.00;;
31206;SDS011;17834;52.992;8.856;2023-04-03T10:10:33;1.60;;;0.90;;
31206;SDS011;17834;52.992;8.856;2023-04-03T10:15:36;1.52;;;0.68;;
31206;SDS011;17834;52.992;8.856;2023-04-03T10:18:08;4.72;;;1.17;;
31206;SDS011;17834;52.992;8.856;2023-04-03T10:20:43;2.88;;;0.93;;
31206;SDS011;17834;52.992;8.856;2023-04-03T10:23:15;1.63;;;0.80;;
31206;SDS011;17834;52.992;8.856;2023-04-03T10:25:49;2.08;;;0.60;;
31206;SDS011;17834;52.992;8.856;2023-04-03T10:28:28;6.63;;;1.25;;
31206;SDS011;17834;52.992;8.856;2023-04-03T10:30:59;4.90;;;0.80;;
31206;SDS011;17834;52.992;8.856;2023-04-03T10:46:36;1.85;;;0.80;;
31206;SDS011;17834;52.992;8.856;2023-04-03T10:51:43;5.75;;;1.15;;
31206;SDS011;17834;52.992;8.856;2023-04-03T10:54:19;2.95;;;0.95;;
31206;SDS011;17834;52.992;8.856;2023-04-03T10:59:21;1.38;;;0.90;;
31206;SDS011;17834;52.992;8.856;2023-04-03T11:01:51;2.60;;;1.00;;
31206;SDS011;17834;52.992;8.856;2023-04-03T11:04:19;1.52;;;0.95;;
31206;SDS011;17834;52.992;8.856;2023-04-03T11:09:36;1.65;;;0.85;;
31206;SDS011;17834;52.992;8.856;2023-04-03T11:12:10;3.45;;;1.40;;
31206;SDS011;17834;52.992;8.856;2023-04-03T11:14:38;3.80;;;1.10;;
31206;SDS011;17834;52.992;8.856;2023-04-03T11:17:12;1.90;;;0.77;;
31206;SDS011;17834;52.992;8.856;2023-04-03T11:19:44;6.78;;;0.90;;
31206;SDS011;17834;52.992;8.856;2023-04-03T11:24:39;4.40;;;1.30;;
31206;SDS011;17834;52.992;8.856;2023-04-03T11:27:08;2.08;;;1.00;;
31206;SDS011;17834;52.992;8.856;2023-04-03T11:29:37;3.22;;;1.00;;
31206;SDS011;17834;52.992;8.856;2023-04-03T11:32:13;2.25;;;1.10;;
31206;SDS011;17834;52.992;8.856;2023-04-03T11:34:47;4.05;;;0.90;;
31206;SDS011;17834;52.992;8.856;2023-04-03T11:39:41;3.33;;;0.70;;
31206;SDS011;17834;52.992;8.856;2023-04-03T11:42:55;1.88;;;0.85;;
31206;SDS011;17834;52.992;8.856;2023-04-03T11:47:52;1.83;;;0.90;;
31206;SDS011;17834;52.992;8.856;2023-04-03T11:50:30;4.80;;;1.08;;
31206;SDS011;17834;52.992;8.856;2023-04-03T11:52:57;2.60;;;0.80;;
31206;SDS011;17834;52.992;8.856;2023-04-03T12:05:52;1.10;;;0.60;;
31206;SDS011;17834;52.992;8.856;2023-04-03T12:08:29;4.65;;;1.00;;
31206;SDS011;17834;52.992;8.856;2023-04-03T12:13:37;1.77;;;0.85;;
31206;SDS011;17834;52.992;8.856;2023-04-03T12:16:19;3.15;;;0.82;;
31206;SDS011;17834;52.992;8.856;2023-04-03T12:21:22;2.92;;;0.90;;
31206;SDS011;17834;52.992;8.856;2023-04-03T12:29:21;3.38;;;1.65;;
31206;SDS011;17834;52.992;8.856;2023-04-03T12:34:44;3.13;;;1.00;;
31206;SDS011;17834;52.992;8.856;2023-04-03T12:37:19;3.28;;;1.10;;
31206;SDS011;17834;52.992;8.856;2023-04-03T12:39:52;3.40;;;1.10;;
31206;SDS011;17834;52.992;8.856;2023-04-03T12:42:29;1.73;;;1.00;;
31206;SDS011;17834;52.992;8.856;2023-04-03T12:47:34;7.05;;;2.90;;
31206;SDS011;17834;52.992;8.856;2023-04-03T12:50:13;5.03;;;1.60;;
31206;SDS011;17834;52.992;8.856;2023-04-03T12:52:44;4.00;;;1.40;;
31206;SDS011;17834;52.992;8.856;2023-04-03T12:55:15;3.28;;;1.42;;
31206;SDS011;17834;52.992;8.856;2023-04-03T12:57:41;3.30;;;1.27;;
31206;SDS011;17834;52.992;8.856;2023-04-03T13:02:52;2.00;;;1.30;;
31206;SDS011;17834;52.992;8.856;2023-04-03T13:05:18;2.35;;;1.50;;
31206;SDS011;17834;52.992;8.856;2023-04-03T13:07:48;4.15;;;1.45;;
31206;SDS011;17834;52.992;8.856;2023-04-03T13:10:16;3.97;;;1.50;;
31206;SDS011;17834;52.992;8.856;2023-04-03T13:12:53;5.07;;;1.52;;
31206;SDS011;17834;52.992;8.856;2023-04-03T13:15:29;2.40;;;1.30;;
31206;SDS011;17834;52.992;8.856;2023-04-03T13:17:56;2.42;;;1.30;;
31206;SDS011;17834;52.992;8.856;2023-04-03T13:22:49;2.22;;;1.20;;
31206;SDS011;17834;52.992;8.856;2023-04-03T13:25:17;4.22;;;1.30;;
31206;SDS011;17834;52.992;8.856;2023-04-03T13:27:43;2.28;;;1.13;;
31206;SDS011;17834;52.992;8.856;2023-04-03T13:30:27;4.28;;;1.48;;
31206;SDS011;17834;52.992;8.856;2023-04-03T13:32:54;4.07;;;1.60;;
31206;SDS011;17834;52.992;8.856;2023-04-03T13:35:26;2.65;;;1.38;;
31206;SDS011;17834;52.992;8.856;2023-04-03T13:38:00;4.35;;;1.25;;
31206;SDS011;17834;52.992;8.856;2023-04-03T13:40:26;3.75;;;1.42;;
31206;SDS011;17834;52.992;8.856;2023-04-03T13:43:03;3.70;;;1.40;;
31206;SDS011;17834;52.992;8.856;2023-04-03T13:45:31;2.95;;;1.40;;
31206;SDS011;17834;52.992;8.856;2023-04-03T13:53:19;2.55;;;1.80;;
31206;SDS011;17834;52.992;8.856;2023-04-03T13:56:21;3.50;;;1.38;;
31206;SDS011;17834;52.992;8.856;2023-04-03T13:58:38;4.88;;;1.67;;
31206;SDS011;17834;52.992;8.856;2023-04-03T14:03:58;3.20;;;1.40;;
31206;SDS011;17834;52.992;8.856;2023-04-03T14:06:24;4.47;;;1.30;;
31206;SDS011;17834;52.992;8.856;2023-04-03T14:08:50;2.38;;;1.17;;
31206;SDS011;17834;52.992;8.856;2023-04-03T14:11:28;4.32;;;1.25;;
31206;SDS011;17834;52.992;8.856;2023-04-03T14:13:54;4.35;;;1.13;;
31206;SDS011;17834;52.992;8.856;2023-04-03T14:16:22;5.53;;;1.42;;
31206;SDS011;17834;52.992;8.856;2023-04-03T14:18:50;2.95;;;1.40;;
31206;SDS011;17834;52.992;8.856;2023-04-03T14:21:17;1.92;;;0.95;;
31206;SDS011;17834;52.992;8.856;2023-04-03T14:23:44;3.13;;;1.40;;
31206;SDS011;17834;52.992;8.856;2023-04-03T14:26:12;4.82;;;1.40;;
31206;SDS011;17834;52.992;8.856;2023-04-03T14:28:38;2.10;;;1.00;;
31206;SDS011;17834;52.992;8.856;2023-04-03T14:31:05;4.20;;;1.33;;
31206;SDS011;17834;52.992;8.856;2023-04-03T14:33:32;2.72;;;1.17;;
31206;SDS011;17834;52.992;8.856;2023-04-03T14:36:00;5.28;;;1.60;;
31206;SDS011;17834;52.992;8.856;2023-04-03T14:38:28;2.20;;;1.30;;
31206;SDS011;17834;52.992;8.856;2023-04-03T14:40:55;2.40;;;1.02;;
31206;SDS011;17834;52.992;8.856;2023-04-03T14:43:21;2.63;;;1.20;;
31206;SDS011;17834;52.992;8.856;2023-04-03T14:45:48;3.97;;;1.30;;
31206;SDS011;17834;52.992;8.856;2023-04-03T14:48:21;1.95;;;1.10;;
31206;SDS011;17834;52.992;8.856;2023-04-03T14:50:48;2.60;;;1.20;;
31206;SDS011;17834;52.992;8.856;2023-04-03T14:53:14;5.18;;;1.25;;
31206;SDS011;17834;52.992;8.856;2023-04-03T14:55:45;5.35;;;1.30;;
31206;SDS011;17834;52.992;8.856;2023-04-03T14:58:12;5.22;;;1.92;;
31206;SDS011;17834;52.992;8.856;2023-04-03T15:00:38;4.05;;;1.40;;
31206;SDS011;17834;52.992;8.856;2023-04-03T15:03:05;1.85;;;1.10;;
31206;SDS011;17834;52.992;8.856;2023-04-03T15:05:31;2.95;;;1.05;;
31206;SDS011;17834;52.992;8.856;2023-04-03T15:07:57;2.53;;;1.30;;
31206;SDS011;17834;52.992;8.856;2023-04-03T15:10:26;2.22;;;1.20;;
31206;SDS011;17834;52.992;8.856;2023-04-03T15:12:52;3.67;;;1.40;;
31206;SDS011;17834;52.992;8.856;2023-04-03T15:15:19;6.13;;;2.20;;
31206;SDS011;17834;52.992;8.856;2023-04-03T15:17:46;2.10;;;1.20;;
31206;SDS011;17834;52.992;8.856;2023-04-03T15:20:23;3.45;;;1.45;;
31206;SDS011;17834;52.992;8.856;2023-04-03T15:22:49;2.85;;;1.20;;
31206;SDS011;17834;52.992;8.856;2023-04-03T15:25:15;3.22;;;1.33;;
31206;SDS011;17834;52.992;8.856;2023-04-03T15:27:41;1.83;;;1.08;;
31206;SDS011;17834;52.992;8.856;2023-04-03T15:30:10;3.08;;;1.10;;
31206;SDS011;17834;52.992;8.856;2023-04-03T15:32:36;1.80;;;0.98;;
31206;SDS011;17834;52.992;8.856;2023-04-03T15:35:02;2.05;;;0.88;;
31206;SDS011;17834;52.992;8.856;2023-04-03T15:37:28;3.25;;;1.48;;
31206;SDS011;17834;52.992;8.856;2023-04-03T15:39:55;5.15;;;1.80;;
31206;SDS011;17834;52.992;8.856;2023-04-03T15:42:20;5.82;;;1.45;;
31206;SDS011;17834;52.992;8.856;2023-04-03T15:44:46;2.47;;;1.17;;
31206;SDS011;17834;52.992;8.856;2023-04-03T15:47:12;4.13;;;1.30;;
31206;SDS011;17834;52.992;8.856;2023-04-03T15:49:38;2.05;;;1.05;;
31206;SDS011;17834;52.992;8.856;2023-04-03T15:52:05;2.80;;;1.15;;
31206;SDS011;17834;52.992;8.856;2023-04-03T15:54:31;3.95;;;1.15;;
31206;SDS011;17834;52.992;8.856;2023-04-03T15:56:57;4.95;;;1.60;;
31206;SDS011;17834;52.992;8.856;2023-04-03T15:59:23;3.05;;;1.20;;
31206;SDS011;17834;52.992;8.856;2023-04-03T16:01:50;2.60;;;1.40;;
31206;SDS011;17834;52.992;8.856;2023-04-03T16:04:16;3.53;;;1.42;;
31206;SDS011;17834;52.992;8.856;2023-04-03T16:06:43;3.53;;;1.30;;
31206;SDS011;17834;52.992;8.856;2023-04-03T16:09:09;8.02;;;1.77;;
31206;SDS011;17834;52.992;8.856;2023-04-03T16:11:35;2.17;;;1.20;;
31206;SDS011;17834;52.992;8.856;2023-04-03T16:14:04;2.75;;;1.38;;
31206;SDS011;17834;52.992;8.856;2023-04-03T16:16:30;4.57;;;1.40;;
31206;SDS011;17834;52.992;8.856;2023-04-03T16:18:56;4.15;;;1.50;;
31206;SDS011;17834;52.992;8.856;2023-04-03T16:21:22;3.25;;;1.30;;
31206;SDS011;17834;52.992;8.856;2023-04-03T16:23:48;5.90;;;1.73;;
31206;SDS011;17834;52.992;8.856;2023-04-03T16:26:14;3.17;;;1.33;;
31206;SDS011;17834;52.992;8.856;2023-04-03T16:28:42;3.17;;;1.65;;